Airfield :
LOGIN :

Register | Disclaimer

   EN    FR    IT 

 










Legend :    VFR   Marginal VFR   IFR   Intensive IFR   Very Intensive IFR
Visi :
Ceiling :
>= 8 km
>= 3000ft
5 to 8 km
1000 to 3000 ft
1500m to 5 km
500 to 1000 ft
800 to 1500m
200 to 500 ft
< 800m
< 200 ft
Symbols :   Thunderstorms  Fog  Heavy snow  Heavy precipitations  Wind > 20 kt
SIGMETs :     Misc.  Thunderstorms  Icing  Turbulence  Mountain Waves  Volcanic Ashes







- Airport Elevation : 586 ft


LIMN - Cameri Air Force Base

CURRENT METAR :
  • 221155Z VRB03KT 6000 FEW025 SCT040 BKN060 06/00 Q1007 RMK OVC VIS MIN 6000 WHT

EXPIRED METARs :
  • 221055Z 28005KT 6000 SCT050 OVC060 04/01 Q1007 RMK OVC VIS MIN 6000 WHT
  • 220955Z 27005KT 5000 -DZ BR SCT050 OVC060 04/01 Q1007 RMK OVC VIS MIN 5000 WHT

TAF TAF LIMN
Valid from the 22 at 12:00 until the 22 at 21:00 UTC


221100Z 2212/2221 VRB05KT 5000 BR SCT030 BKN040
TEMPO 2212/2221 3000 RA BR
No reported NOTAMs for that airfield.



MET'MAP, your aeronautical weather chart ! - Copyright ORBIFLY December 2007 - Disclaimer

ORBIFLY MET'MAP TEAM :

Programming & Development : Alexandra Zaïnal
Concept & Development : Baudouin d'Aumeries
Co-Development & Prog : Marc-Olivier Méhu
Technical & hardware support : Manuel Goepfert

Contact : metmap@orbifly.com




SOURCES & CREDITS :

   NOAA